createdAt,value
2019-04-30T00:00:38.334Z,100479.03
2019-04-30T00:03:15.379Z,100484.41
2019-04-30T00:05:45.102Z,100473.05
2019-04-30T00:08:16.540Z,100466.34
2019-04-30T00:10:48.117Z,100470.06
2019-04-30T00:13:20.941Z,100462.34
2019-04-30T00:16:00.101Z,100468.39
2019-04-30T00:18:30.787Z,100470.81
2019-04-30T00:21:02.051Z,100469.96
2019-04-30T00:23:35.835Z,100463.05
2019-04-30T00:26:10.231Z,100467.48
2019-04-30T00:28:44.371Z,100452.00
2019-04-30T00:31:17.288Z,100452.50
2019-04-30T00:33:47.050Z,100452.91
2019-04-30T00:36:18.528Z,100451.91
2019-04-30T00:38:50.368Z,100457.41
2019-04-30T00:41:22.029Z,100463.26
2019-04-30T00:43:55.060Z,100457.47
2019-04-30T00:46:29.298Z,100457.97
2019-04-30T00:49:09.283Z,100450.06
2019-04-30T00:51:35.428Z,100454.47
2019-04-30T00:54:07.292Z,100448.03
2019-04-30T00:56:38.881Z,100433.00
2019-04-30T00:59:15.416Z,100452.76
2019-04-30T01:01:51.329Z,100450.61
2019-04-30T01:04:28.234Z,100449.38
2019-04-30T01:07:00.397Z,100451.44
2019-04-30T01:09:51.574Z,100450.70
2019-04-30T01:12:27.701Z,100448.91
2019-04-30T01:14:56.304Z,100443.81
2019-04-30T01:17:27.698Z,100436.81
2019-04-30T01:19:59.487Z,100440.13
2019-04-30T01:22:32.911Z,100442.03
2019-04-30T01:25:08.968Z,100433.91
2019-04-30T01:27:45.760Z,100436.74
2019-04-30T01:30:18.702Z,100436.26
2019-04-30T01:32:52.139Z,100439.98
2019-04-30T01:35:23.894Z,100433.67
2019-04-30T01:37:54.388Z,100424.22
2019-04-30T01:40:26.066Z,100426.70
2019-04-30T01:42:59.339Z,100435.02
2019-04-30T01:45:31.700Z,100454.57
2019-04-30T01:48:08.857Z,100447.61
2019-04-30T01:50:38.729Z,100440.09
2019-04-30T01:53:13.096Z,100434.09
2019-04-30T01:55:45.877Z,100432.39
2019-04-30T01:58:22.563Z,100434.66
2019-04-30T02:00:59.366Z,100449.28
2019-04-30T02:03:31.135Z,100458.52
2019-04-30T02:06:04.002Z,100450.78
2019-04-30T02:08:39.294Z,100444.17
2019-04-30T02:11:10.793Z,100453.99
2019-04-30T02:13:42.207Z,100463.25
2019-04-30T02:16:13.605Z,100462.77
2019-04-30T02:18:45.188Z,100454.65
2019-04-30T02:21:19.071Z,100456.20
2019-04-30T02:23:50.139Z,100456.95
2019-04-30T02:26:23.292Z,100444.58
2019-04-30T02:28:54.681Z,100443.24
2019-04-30T02:31:26.233Z,100440.80
2019-04-30T02:34:00.485Z,100436.35
2019-04-30T02:36:49.946Z,100445.73
2019-04-30T02:39:23.608Z,100450.06
2019-04-30T02:41:55.689Z,100455.92
2019-04-30T02:44:29.333Z,100453.16
2019-04-30T02:47:02.368Z,100453.95
2019-04-30T02:49:34.975Z,100450.75
2019-04-30T02:52:09.278Z,100451.23
2019-04-30T02:54:43.442Z,100446.63
2019-04-30T02:57:15.184Z,100440.29
2019-04-30T03:00:06.404Z,100448.42
2019-04-30T03:02:39.450Z,100433.75
2019-04-30T03:05:13.680Z,100435.65
2019-04-30T03:07:45.583Z,100443.95
2019-04-30T03:10:19.711Z,100437.25
2019-04-30T03:12:50.322Z,100445.47
2019-04-30T03:15:22.857Z,100440.77
2019-04-30T03:18:00.569Z,100437.64
2019-04-30T03:20:42.271Z,100431.97
2019-04-30T03:23:13.674Z,100420.45
2019-04-30T03:25:45.129Z,100429.23
2019-04-30T03:28:16.652Z,100430.02
2019-04-30T03:30:56.305Z,100430.95
2019-04-30T03:33:23.664Z,100440.13
2019-04-30T03:36:01.834Z,100445.69
2019-04-30T03:38:30.219Z,100452.52
2019-04-30T03:41:01.659Z,100446.53
2019-04-30T03:43:33.256Z,100444.94
2019-04-30T03:46:04.801Z,100444.09
2019-04-30T03:48:36.208Z,100452.09
2019-04-30T03:51:10.663Z,100442.55
2019-04-30T03:53:42.701Z,100446.42
2019-04-30T03:56:14.478Z,100438.48
2019-04-30T03:58:45.927Z,100438.11
2019-04-30T04:01:34.121Z,100441.61
2019-04-30T04:04:13.526Z,100437.94
2019-04-30T04:06:52.662Z,100442.19
2019-04-30T04:09:31.607Z,100444.35
2019-04-30T04:12:21.587Z,100445.77
2019-04-30T04:14:54.283Z,100453.31
2019-04-30T04:17:26.024Z,100454.56
2019-04-30T04:19:59.785Z,100452.20
2019-04-30T04:22:31.029Z,100456.85
2019-04-30T04:25:02.610Z,100454.47
2019-04-30T04:27:34.196Z,100452.61
2019-04-30T04:30:10.339Z,100451.66
2019-04-30T04:32:40.978Z,100449.09
2019-04-30T04:35:13.042Z,100451.19
2019-04-30T04:37:44.737Z,100449.48
2019-04-30T04:40:16.423Z,100448.16
2019-04-30T04:42:49.270Z,100453.15
2019-04-30T04:45:20.966Z,100453.83
2019-04-30T04:47:52.563Z,100452.67
2019-04-30T04:50:25.018Z,100455.80
2019-04-30T04:52:56.676Z,100458.65
2019-04-30T04:55:29.875Z,100457.11
2019-04-30T04:58:01.695Z,100459.59
2019-04-30T05:00:34.176Z,100450.70
2019-04-30T05:03:10.247Z,100455.74
2019-04-30T05:05:41.731Z,100463.94
2019-04-30T05:08:14.152Z,100457.16
2019-04-30T05:10:45.744Z,100462.30
2019-04-30T05:13:19.082Z,100455.65
2019-04-30T05:15:51.642Z,100457.24
2019-04-30T05:18:23.155Z,100450.71
2019-04-30T05:20:56.813Z,100450.40
2019-04-30T05:23:29.847Z,100441.16
2019-04-30T05:26:02.489Z,100442.43
2019-04-30T05:28:39.367Z,100446.22
2019-04-30T05:31:18.431Z,100441.28
2019-04-30T05:33:50.653Z,100441.33
2019-04-30T05:36:22.453Z,100442.12
2019-04-30T05:38:54.049Z,100451.84
2019-04-30T05:41:29.799Z,100454.78
2019-04-30T05:44:01.626Z,100459.95
2019-04-30T05:46:33.178Z,100472.84
2019-04-30T05:49:04.828Z,100471.56
2019-04-30T05:51:38.802Z,100467.50
2019-04-30T05:54:10.467Z,100468.86
2019-04-30T05:56:42.790Z,100483.33
2019-04-30T05:59:14.348Z,100478.33
2019-04-30T06:01:48.723Z,100480.76
2019-04-30T06:04:19.378Z,100482.88
2019-04-30T06:06:50.956Z,100481.78
2019-04-30T06:09:33.682Z,100485.62
2019-04-30T06:12:26.307Z,100472.41
2019-04-30T06:15:02.343Z,100474.16
2019-04-30T06:17:34.501Z,100476.72
2019-04-30T06:20:18.104Z,100483.41
2019-04-30T06:22:40.750Z,100472.91
2019-04-30T06:25:12.284Z,100469.89
2019-04-30T06:27:45.837Z,100473.02
2019-04-30T06:30:19.718Z,100472.66
2019-04-30T06:32:55.185Z,100481.84
2019-04-30T06:35:26.840Z,100486.76
2019-04-30T06:37:58.939Z,100478.25
2019-04-30T06:40:30.649Z,100482.98
2019-04-30T06:43:02.387Z,100483.94
2019-04-30T06:45:35.536Z,100483.20
2019-04-30T06:48:08.753Z,100484.47
2019-04-30T06:50:40.290Z,100480.77
2019-04-30T06:53:11.702Z,100478.44
2019-04-30T06:55:44.192Z,100480.56
2019-04-30T06:58:15.675Z,100474.91
2019-04-30T07:00:47.160Z,100477.30
2019-04-30T07:03:19.155Z,100477.86
2019-04-30T07:05:50.668Z,100476.29
2019-04-30T07:08:46.922Z,100486.58
2019-04-30T07:11:21.671Z,100483.94
2019-04-30T07:13:53.314Z,100480.23
2019-04-30T07:16:24.803Z,100484.42
2019-04-30T07:18:56.178Z,100479.31
2019-04-30T07:21:31.685Z,100474.05
2019-04-30T07:24:05.634Z,100475.69
2019-04-30T07:26:38.941Z,100477.37
2019-04-30T07:29:10.308Z,100475.18
2019-04-30T07:31:42.738Z,100487.73
2019-04-30T07:34:14.111Z,100482.25
2019-04-30T07:36:51.076Z,100478.93
2019-04-30T07:39:19.313Z,100482.18
2019-04-30T07:41:51.783Z,100485.29
2019-04-30T07:44:33.726Z,100484.24
2019-04-30T07:46:56.343Z,100477.22
2019-04-30T07:49:46.515Z,100485.59
2019-04-30T07:52:02.194Z,100480.17
2019-04-30T07:54:34.207Z,100482.84
2019-04-30T07:57:05.557Z,100474.83
2019-04-30T07:59:37.135Z,100476.91
2019-04-30T08:02:13.840Z,100478.34
2019-04-30T08:04:51.226Z,100483.31
2019-04-30T08:07:22.592Z,100479.67
2019-04-30T08:09:54.042Z,100480.87
2019-04-30T08:12:31.763Z,100483.67
2019-04-30T08:14:59.713Z,100480.17
2019-04-30T08:17:31.131Z,100475.77
2019-04-30T08:20:02.593Z,100475.85
2019-04-30T08:22:34.417Z,100478.98
2019-04-30T08:25:06.707Z,100474.86
2019-04-30T08:27:39.289Z,100478.52
2019-04-30T08:30:23.032Z,100480.45
2019-04-30T08:32:44.582Z,100486.07
2019-04-30T08:35:16.012Z,100488.39
2019-04-30T08:37:49.525Z,100487.39
2019-04-30T08:40:21.144Z,100487.66
2019-04-30T08:42:56.185Z,100479.31
2019-04-30T08:45:31.460Z,100477.25
2019-04-30T08:48:02.376Z,100480.46
2019-04-30T08:50:34.663Z,100479.66
2019-04-30T08:53:06.302Z,100476.71
2019-04-30T08:55:39.143Z,100469.30
2019-04-30T08:58:14.919Z,100468.34
2019-04-30T09:00:44.113Z,100463.37
2019-04-30T09:03:15.795Z,100465.62
2019-04-30T09:05:49.926Z,100461.69
2019-04-30T09:08:21.542Z,100462.13
2019-04-30T09:10:52.922Z,100462.30
2019-04-30T09:13:24.547Z,100465.86
2019-04-30T09:15:56.295Z,100474.07
2019-04-30T09:18:29.162Z,100462.11
2019-04-30T09:21:05.962Z,100462.20
2019-04-30T09:23:43.950Z,100461.38
2019-04-30T09:26:08.679Z,100458.90
2019-04-30T09:31:06.419Z,100457.50
2019-04-30T09:33:39.366Z,100454.39
2019-04-30T09:36:10.909Z,100458.02
2019-04-30T09:38:42.374Z,100456.27
2019-04-30T09:41:14.057Z,100458.06
2019-04-30T09:43:45.417Z,100451.31
2019-04-30T09:46:24.641Z,100450.53
2019-04-30T09:48:50.858Z,100446.27
2019-04-30T09:51:24.725Z,100446.16
2019-04-30T09:53:59.963Z,100449.11
2019-04-30T09:56:29.396Z,100442.69
2019-04-30T09:59:01.024Z,100449.25
2019-04-30T10:01:33.249Z,100446.06
2019-04-30T10:04:05.933Z,100442.84
2019-04-30T10:06:40.186Z,100439.26
2019-04-30T10:09:12.579Z,100442.31
2019-04-30T10:11:45.624Z,100441.20
2019-04-30T10:14:17.142Z,100436.09
2019-04-30T10:16:57.179Z,100440.85
2019-04-30T10:19:29.371Z,100438.08
2019-04-30T10:22:00.801Z,100437.81
2019-04-30T10:24:34.202Z,100428.28
2019-04-30T10:27:10.428Z,100431.66
2019-04-30T10:29:41.200Z,100434.53
2019-04-30T10:32:12.993Z,100424.38
2019-04-30T10:34:45.907Z,100429.33
2019-04-30T10:37:18.901Z,100427.30
2019-04-30T10:39:50.427Z,100425.80
2019-04-30T10:42:22.039Z,100422.61
2019-04-30T10:44:53.414Z,100420.59
2019-04-30T10:47:25.862Z,100423.08
2019-04-30T10:49:58.544Z,100423.47
2019-04-30T10:52:30.016Z,100415.45
2019-04-30T10:55:04.506Z,100421.81
2019-04-30T10:57:35.586Z,100424.52
2019-04-30T11:00:11.337Z,100419.09
2019-04-30T11:02:42.704Z,100419.07
2019-04-30T11:05:15.579Z,100425.15
2019-04-30T11:07:46.989Z,100425.55
2019-04-30T11:10:18.924Z,100429.23
2019-04-30T11:12:50.395Z,100427.61
2019-04-30T11:15:22.815Z,100415.33
2019-04-30T11:17:54.404Z,100420.00
2019-04-30T11:20:27.124Z,100418.94
2019-04-30T11:22:58.800Z,100418.51
2019-04-30T11:25:31.345Z,100416.48
2019-04-30T11:28:03.844Z,100419.50
2019-04-30T11:30:36.591Z,100415.48
2019-04-30T11:33:09.974Z,100412.45
2019-04-30T11:35:43.573Z,100411.87
2019-04-30T11:38:14.996Z,100407.97
2019-04-30T11:40:48.581Z,100414.58
2019-04-30T11:43:20.290Z,100408.72
2019-04-30T11:45:54.516Z,100406.48
2019-04-30T11:48:26.003Z,100400.75
2019-04-30T11:50:59.436Z,100403.87
2019-04-30T11:53:30.989Z,100408.30
2019-04-30T11:56:02.656Z,100404.06
2019-04-30T11:58:33.889Z,100401.77
2019-04-30T12:01:06.881Z,100397.95
2019-04-30T12:03:39.417Z,100399.74
2019-04-30T12:06:12.028Z,100400.02
2019-04-30T12:09:00.353Z,100391.03
2019-04-30T12:11:40.839Z,100396.20
2019-04-30T12:14:12.583Z,100403.30
2019-04-30T12:16:45.280Z,100399.61
2019-04-30T12:19:16.640Z,100401.12
2019-04-30T12:21:48.006Z,100398.85
2019-04-30T12:24:20.554Z,100401.02
2019-04-30T12:26:51.991Z,100405.21
2019-04-30T12:29:23.557Z,100405.03
2019-04-30T12:31:55.009Z,100412.80
2019-04-30T12:34:26.503Z,100413.45
2019-04-30T12:36:59.647Z,100413.08
2019-04-30T12:39:31.308Z,100407.09
2019-04-30T12:42:02.827Z,100409.97
2019-04-30T12:44:35.201Z,100402.87
2019-04-30T12:47:06.658Z,100404.91
2019-04-30T12:49:45.710Z,100405.63
2019-04-30T12:52:35.419Z,100402.91
2019-04-30T12:55:15.656Z,100396.55
2019-04-30T12:57:58.287Z,100400.48
2019-04-30T13:00:19.971Z,100397.36
2019-04-30T13:02:51.727Z,100396.98
2019-04-30T13:05:23.434Z,100396.95
2019-04-30T13:07:55.526Z,100399.94
2019-04-30T13:10:27.989Z,100397.65
2019-04-30T13:12:59.949Z,100396.46
2019-04-30T13:15:33.858Z,100396.87
2019-04-30T13:18:05.272Z,100390.13
2019-04-30T13:20:39.038Z,100401.20
2019-04-30T13:23:10.033Z,100395.47
2019-04-30T13:25:51.072Z,100396.58
2019-04-30T13:28:17.500Z,100399.88
2019-04-30T13:30:49.442Z,100407.84
2019-04-30T13:33:25.671Z,100404.29
2019-04-30T13:35:58.829Z,100404.52
2019-04-30T13:38:31.969Z,100412.86
2019-04-30T13:41:05.054Z,100416.30
2019-04-30T13:43:58.625Z,100409.19
2019-04-30T13:46:29.614Z,100409.95
2019-04-30T13:49:01.173Z,100418.56
2019-04-30T13:51:32.616Z,100411.26
2019-04-30T13:54:05.700Z,100411.56
2019-04-30T13:56:39.692Z,100397.97
2019-04-30T13:59:12.442Z,100393.76
2019-04-30T14:01:43.987Z,100405.83
2019-04-30T14:04:17.156Z,100406.42
2019-04-30T14:06:50.410Z,100400.82
2019-04-30T14:09:26.591Z,100405.02
2019-04-30T14:11:58.148Z,100407.36
2019-04-30T14:14:29.698Z,100410.06
2019-04-30T14:17:01.365Z,100408.81
2019-04-30T14:19:32.976Z,100405.38
2019-04-30T14:22:04.448Z,100404.95
2019-04-30T14:24:35.937Z,100404.26
2019-04-30T14:27:20.409Z,100402.48
2019-04-30T14:29:53.430Z,100407.17
2019-04-30T14:32:24.956Z,100410.70
2019-04-30T14:34:58.842Z,100412.23
2019-04-30T14:37:31.821Z,100412.78
2019-04-30T14:40:04.957Z,100410.75
2019-04-30T14:42:38.798Z,100412.34
2019-04-30T14:45:12.800Z,100409.99
2019-04-30T14:47:49.958Z,100407.92
2019-04-30T14:50:22.092Z,100403.66
2019-04-30T14:52:55.118Z,100404.34
2019-04-30T14:55:45.866Z,100409.35
2019-04-30T14:58:35.411Z,100408.08
2019-04-30T15:01:19.373Z,100408.15
2019-04-30T15:03:51.032Z,100416.70
2019-04-30T15:06:29.522Z,100419.36
2019-04-30T15:09:01.099Z,100411.06
2019-04-30T15:11:34.373Z,100423.02
2019-04-30T15:14:05.987Z,100422.91
2019-04-30T15:16:37.505Z,100419.37
2019-04-30T15:19:09.953Z,100431.55
2019-04-30T15:21:41.359Z,100436.88
2019-04-30T15:24:17.062Z,100436.44
2019-04-30T15:26:57.711Z,100434.86
2019-04-30T15:29:24.775Z,100439.58
2019-04-30T15:31:56.399Z,100435.28
2019-04-30T15:34:29.432Z,100439.20
2019-04-30T15:37:01.227Z,100436.95
2019-04-30T15:39:35.352Z,100440.74
2019-04-30T15:42:07.480Z,100431.69
2019-04-30T15:44:42.649Z,100425.77
2019-04-30T15:47:12.201Z,100428.44
2019-04-30T15:49:43.572Z,100433.05
2019-04-30T15:52:15.066Z,100424.66
2019-04-30T15:54:46.434Z,100424.31
2019-04-30T15:57:19.081Z,100430.70
2019-04-30T15:59:50.479Z,100423.20
2019-04-30T16:02:23.567Z,100432.14
2019-04-30T16:05:11.839Z,100431.98
2019-04-30T16:07:50.495Z,100427.12
2019-04-30T16:10:35.606Z,100434.13
2019-04-30T16:13:15.616Z,100435.31
2019-04-30T16:15:49.090Z,100434.50
2019-04-30T16:18:20.280Z,100431.33
2019-04-30T16:20:51.672Z,100430.96
2019-04-30T16:23:23.162Z,100431.06
2019-04-30T16:25:54.587Z,100424.78
2019-04-30T16:28:26.477Z,100423.69
2019-04-30T16:30:58.034Z,100433.09
2019-04-30T16:33:29.515Z,100426.93
2019-04-30T16:36:01.004Z,100433.77
2019-04-30T16:38:33.415Z,100450.83
2019-04-30T16:41:04.807Z,100482.02
2019-04-30T16:43:36.277Z,100506.64
2019-04-30T16:46:07.766Z,100516.83
2019-04-30T16:48:39.347Z,100505.63
2019-04-30T16:51:10.802Z,100502.48
2019-04-30T16:53:42.176Z,100504.02
2019-04-30T16:56:13.582Z,100500.02
2019-04-30T16:59:01.882Z,100492.16
2019-04-30T17:01:34.863Z,100485.15
2019-04-30T17:04:10.974Z,100481.56
2019-04-30T17:06:44.072Z,100477.59
2019-04-30T17:09:33.295Z,100472.16
2019-04-30T17:12:08.483Z,100476.42
2019-04-30T17:14:41.259Z,100467.91
2019-04-30T17:17:12.715Z,100467.02
2019-04-30T17:19:44.897Z,100460.98
2019-04-30T17:22:16.261Z,100458.40
2019-04-30T17:24:49.430Z,100455.03
2019-04-30T17:27:22.198Z,100452.69
2019-04-30T17:30:02.872Z,100456.02
2019-04-30T17:32:34.368Z,100462.45
2019-04-30T17:35:09.022Z,100465.84
2019-04-30T17:37:42.350Z,100456.12
2019-04-30T17:40:14.910Z,100453.90
2019-04-30T17:42:46.783Z,100458.30
2019-04-30T17:45:19.480Z,100461.78
2019-04-30T17:47:50.980Z,100464.92
2019-04-30T17:50:24.093Z,100462.98
2019-04-30T17:52:55.558Z,100466.30
2019-04-30T17:55:29.157Z,100471.05
2019-04-30T17:58:00.989Z,100478.19
2019-04-30T18:00:35.233Z,100467.92
2019-04-30T18:03:08.857Z,100469.47
2019-04-30T18:05:40.787Z,100462.91
2019-04-30T18:08:12.311Z,100466.94
2019-04-30T18:10:44.392Z,100465.83
2019-04-30T18:13:15.810Z,100461.56
2019-04-30T18:15:48.424Z,100468.52
2019-04-30T18:18:23.672Z,100472.48
2019-04-30T18:21:11.711Z,100475.55
2019-04-30T18:23:44.879Z,100473.98
2019-04-30T18:26:17.716Z,100457.16
2019-04-30T18:28:49.082Z,100454.11
2019-04-30T18:31:20.527Z,100459.20
2019-04-30T18:33:52.076Z,100465.38
2019-04-30T18:36:24.510Z,100485.64
2019-04-30T18:38:55.899Z,100499.25
2019-04-30T18:41:29.125Z,100499.20
2019-04-30T18:44:00.613Z,100497.90
2019-04-30T18:46:32.285Z,100492.98
2019-04-30T18:49:04.759Z,100496.96
2019-04-30T18:51:39.353Z,100506.53
2019-04-30T18:54:09.639Z,100510.58
2019-04-30T18:56:41.046Z,100510.75
2019-04-30T18:59:12.515Z,100519.45
2019-04-30T19:01:44.603Z,100521.34
2019-04-30T19:04:16.031Z,100523.41
2019-04-30T19:06:50.068Z,100517.38
2019-04-30T19:09:35.067Z,100518.49
2019-04-30T19:12:19.296Z,100519.82
2019-04-30T19:15:07.188Z,100520.30
2019-04-30T19:17:41.288Z,100510.86
2019-04-30T19:20:20.201Z,100504.23
2019-04-30T19:22:51.648Z,100499.96
2019-04-30T19:25:23.037Z,100495.04
2019-04-30T19:27:54.387Z,100504.51
2019-04-30T19:30:29.171Z,100499.31
2019-04-30T19:33:00.155Z,100492.59
2019-04-30T19:35:31.673Z,100497.14
2019-04-30T19:38:03.149Z,100503.08
2019-04-30T19:40:34.707Z,100484.08
2019-04-30T19:43:06.124Z,100486.72
2019-04-30T19:45:38.060Z,100484.85
2019-04-30T19:48:10.621Z,100477.45
2019-04-30T19:50:42.128Z,100472.53
2019-04-30T19:53:13.657Z,100470.66
2019-04-30T19:55:45.107Z,100466.69
2019-04-30T19:58:27.735Z,100465.27
2019-04-30T20:00:50.005Z,100464.98
2019-04-30T20:03:24.074Z,100471.70
2019-04-30T20:05:55.607Z,100455.52
2019-04-30T20:08:28.698Z,100452.77
2019-04-30T20:11:00.493Z,100453.63
2019-04-30T20:13:37.033Z,100465.48
2019-04-30T20:16:05.274Z,100461.89
2019-04-30T20:18:36.631Z,100452.66
2019-04-30T20:21:09.742Z,100450.02
2019-04-30T20:23:42.279Z,100452.97
2019-04-30T20:26:14.769Z,100453.71
2019-04-30T20:28:46.050Z,100459.38
2019-04-30T20:31:19.057Z,100452.49
2019-04-30T20:33:53.603Z,100457.79
2019-04-30T20:36:23.979Z,100460.36
2019-04-30T20:39:02.822Z,100449.00
2019-04-30T20:41:35.940Z,100449.00
2019-04-30T20:44:08.724Z,100444.17
2019-04-30T20:46:40.502Z,100449.95
2019-04-30T20:49:15.711Z,100447.69
2019-04-30T20:51:55.240Z,100439.38
2019-04-30T20:54:20.362Z,100433.61
2019-04-30T20:56:51.849Z,100442.47
2019-04-30T20:59:23.263Z,100437.64
2019-04-30T21:01:54.550Z,100434.53
2019-04-30T21:04:26.145Z,100427.73
2019-04-30T21:06:59.369Z,100422.34
2019-04-30T21:09:30.522Z,100432.28
2019-04-30T21:12:01.956Z,100438.33
2019-04-30T21:14:33.495Z,100431.81
2019-04-30T21:17:05.096Z,100424.14
2019-04-30T21:19:36.583Z,100423.46
2019-04-30T21:22:09.521Z,100416.20
2019-04-30T21:24:41.024Z,100420.81
2019-04-30T21:27:12.535Z,100416.30
2019-04-30T21:29:44.936Z,100413.92
2019-04-30T21:32:18.974Z,100415.25
2019-04-30T21:35:01.845Z,100421.22
2019-04-30T21:37:34.777Z,100414.13
2019-04-30T21:40:09.619Z,100415.83
2019-04-30T21:42:40.560Z,100413.55
2019-04-30T21:45:12.455Z,100404.48
2019-04-30T21:47:55.759Z,100403.91
2019-04-30T21:50:20.596Z,100404.50
2019-04-30T21:52:53.576Z,100408.53
2019-04-30T21:55:26.523Z,100395.51
2019-04-30T21:57:59.446Z,100393.70
2019-04-30T22:00:35.448Z,100392.08
2019-04-30T22:03:09.728Z,100382.55
2019-04-30T22:05:41.544Z,100382.92
2019-04-30T22:08:13.040Z,100374.04
2019-04-30T22:10:44.525Z,100365.08
2019-04-30T22:13:16.006Z,100365.45
2019-04-30T22:15:47.477Z,100374.71
2019-04-30T22:18:19.163Z,100364.12
2019-04-30T22:20:50.757Z,100354.12
2019-04-30T22:23:22.164Z,100349.86
2019-04-30T22:25:53.701Z,100349.85
2019-04-30T22:28:25.175Z,100355.23
2019-04-30T22:30:58.556Z,100363.17
2019-04-30T22:33:29.809Z,100354.87
2019-04-30T22:36:03.004Z,100345.87
2019-04-30T22:38:36.062Z,100350.31
2019-04-30T22:41:08.928Z,100357.01
2019-04-30T22:43:40.352Z,100357.97
2019-04-30T22:46:13.423Z,100355.03
2019-04-30T22:48:44.885Z,100359.77
2019-04-30T22:51:16.263Z,100355.59
2019-04-30T22:53:48.897Z,100356.45
2019-04-30T22:56:20.179Z,100359.67
2019-04-30T22:58:53.246Z,100356.25
2019-04-30T23:01:38.336Z,100346.63
2019-04-30T23:04:11.341Z,100341.70
2019-04-30T23:06:42.956Z,100348.52
2019-04-30T23:09:15.934Z,100354.08
2019-04-30T23:11:52.456Z,100346.45
2019-04-30T23:14:23.919Z,100340.80
2019-04-30T23:16:55.362Z,100336.94
2019-04-30T23:19:26.780Z,100327.74
2019-04-30T23:21:58.031Z,100330.12
2019-04-30T23:24:30.596Z,100323.03
2019-04-30T23:27:02.035Z,100310.18
2019-04-30T23:29:33.377Z,100313.30
2019-04-30T23:32:04.849Z,100306.69
2019-04-30T23:34:36.232Z,100298.48
2019-04-30T23:37:07.664Z,100299.80
2019-04-30T23:39:39.031Z,100297.91
2019-04-30T23:42:10.309Z,100292.14
2019-04-30T23:44:41.751Z,100296.21
2019-04-30T23:47:12.955Z,100295.16
2019-04-30T23:49:44.282Z,100297.91
2019-04-30T23:52:15.658Z,100289.98
2019-04-30T23:54:47.037Z,100285.16
2019-04-30T23:57:18.333Z,100287.70
2019-04-30T23:59:49.642Z,100285.33
